createdAt,value
2022-09-05T00:01:35.225Z,96215.34
2022-09-05T00:04:24.694Z,96208.31
2022-09-05T00:07:03.561Z,96126.69
2022-09-05T00:09:57.783Z,96212.69
2022-09-05T00:12:32.584Z,96196.06
2022-09-05T00:15:19.139Z,96110.34
2022-09-05T00:21:36.780Z,96183.34
2022-09-05T00:24:20.721Z,96200.34
2022-09-05T00:24:36.939Z,96151.78
2022-09-05T00:27:01.225Z,96205.50
2022-09-05T00:31:05.440Z,96197.69
2022-09-05T00:32:56.616Z,96210.69
2022-09-05T00:35:43.968Z,96203.69
2022-09-05T00:38:16.064Z,96208.53
2022-09-05T00:40:49.193Z,96204.75
2022-09-05T00:43:23.406Z,96216.41
2022-09-05T00:45:59.633Z,96199.97
2022-09-05T00:48:38.289Z,96194.59
2022-09-05T00:51:29.222Z,96211.06
2022-09-05T00:54:41.642Z,96223.81
2022-09-05T00:57:30.784Z,96215.13
2022-09-05T01:00:17.321Z,96217.56
2022-09-05T01:03:28.584Z,96218.94
2022-09-05T01:06:13.991Z,96219.50
2022-09-05T01:09:13.737Z,96207.66
2022-09-05T01:11:52.741Z,96218.97
2022-09-05T01:14:41.383Z,96224.38
2022-09-05T01:17:32.260Z,96226.59
2022-09-05T01:20:25.952Z,96228.78
2022-09-05T01:23:30.419Z,96225.56
2022-09-05T01:26:28.000Z,96091.78
2022-09-05T01:29:16.218Z,96226.69
2022-09-05T01:32:01.115Z,96225.06
2022-09-05T01:34:39.392Z,96218.00
2022-09-05T01:37:26.609Z,96161.94
2022-09-05T01:40:17.056Z,96225.66
2022-09-05T01:42:51.746Z,96217.81
2022-09-05T01:45:35.715Z,96214.03
2022-09-05T01:48:11.846Z,96225.63
2022-09-05T01:50:50.031Z,96225.88
2022-09-05T01:53:40.301Z,96228.28
2022-09-05T01:56:29.652Z,96227.47
2022-09-05T01:59:11.494Z,96217.44
2022-09-05T02:02:03.215Z,96219.88
2022-09-05T02:04:49.677Z,96216.34
2022-09-05T02:07:31.834Z,96218.56
2022-09-05T02:10:29.336Z,96212.84
2022-09-05T02:13:05.301Z,96157.53
2022-09-05T02:15:53.840Z,96199.56
2022-09-05T02:18:44.500Z,96213.13
2022-09-05T02:21:22.776Z,96203.38
2022-09-05T02:23:56.937Z,96211.19
2022-09-05T02:26:32.430Z,96214.22
2022-09-05T02:29:04.837Z,96206.06
2022-09-05T02:31:45.555Z,96172.56
2022-09-05T02:34:22.145Z,96207.97
2022-09-05T02:36:56.805Z,96212.88
2022-09-05T02:43:57.204Z,96225.31
2022-09-05T02:45:06.736Z,96216.97
2022-09-05T02:45:38.590Z,96118.75
2022-09-05T02:48:18.409Z,96206.69
2022-09-05T02:57:23.253Z,96202.88
2022-09-05T02:57:26.146Z,96202.34
2022-09-05T02:57:35.419Z,96159.75
2022-09-05T03:00:09.297Z,96209.97
2022-09-05T03:03:06.248Z,96202.38
2022-09-05T03:05:39.044Z,96173.22
2022-09-05T03:08:23.015Z,96177.28
2022-09-05T03:11:01.030Z,96188.94
2022-09-05T03:14:19.045Z,96192.34
2022-09-05T03:17:18.583Z,96198.31
2022-09-05T03:20:26.096Z,96200.50
2022-09-05T03:23:30.793Z,96197.25
2022-09-05T03:26:39.828Z,96191.88
2022-09-05T03:29:39.410Z,96203.56
2022-09-05T03:32:49.687Z,96193.59
2022-09-05T03:35:52.949Z,96189.81
2022-09-05T03:38:59.979Z,96197.66
2022-09-05T03:41:50.664Z,96194.41
2022-09-05T03:44:34.055Z,96189.00
2022-09-05T03:47:39.403Z,96189.53
2022-09-05T03:57:07.290Z,96124.00
2022-09-05T03:57:18.606Z,96167.72
2022-09-05T03:57:38.561Z,96194.97
2022-09-05T04:00:09.124Z,96160.72
2022-09-05T04:08:05.755Z,96107.03
2022-09-05T04:08:15.212Z,96194.72
2022-09-05T04:08:42.680Z,96198.78
2022-09-05T04:11:17.185Z,96198.78
2022-09-05T04:13:52.953Z,96155.06
2022-09-05T04:16:26.186Z,96196.59
2022-09-05T04:18:58.590Z,96196.59
2022-09-05T04:21:30.957Z,96199.81
2022-09-05T04:24:08.168Z,95872.50
2022-09-05T04:26:49.710Z,96196.56
2022-09-05T04:29:27.832Z,96197.66
2022-09-05T04:32:18.222Z,95970.31
2022-09-05T04:35:04.320Z,96207.94
2022-09-05T04:37:48.660Z,96199.00
2022-09-05T04:40:39.567Z,96216.34
2022-09-05T04:43:12.129Z,96155.06
2022-09-05T04:45:47.741Z,96210.09
2022-09-05T04:48:21.629Z,96202.88
2022-09-05T04:51:06.242Z,96210.66
2022-09-05T04:53:58.343Z,96230.16
2022-09-05T04:56:32.559Z,96216.59
2022-09-05T05:01:06.880Z,96221.72
2022-09-05T05:06:01.686Z,96214.75
2022-09-05T05:06:11.394Z,96229.63
2022-09-05T05:07:51.445Z,96222.00
2022-09-05T05:13:49.120Z,96227.94
2022-09-05T05:18:07.040Z,96226.31
2022-09-05T05:18:14.229Z,96229.28
2022-09-05T05:19:21.351Z,96205.28
2022-09-05T05:21:54.244Z,96158.88
2022-09-05T05:24:26.268Z,96238.69
2022-09-05T05:27:03.343Z,96214.16
2022-09-05T05:29:43.429Z,96128.06
2022-09-05T05:32:31.684Z,96244.09
2022-09-05T05:35:13.680Z,96245.13
2022-09-05T05:37:46.480Z,96248.09
2022-09-05T05:40:23.169Z,96248.03
2022-09-05T05:42:52.139Z,96253.72
2022-09-05T05:45:26.352Z,96214.66
2022-09-05T05:47:58.493Z,96259.06
2022-09-05T05:50:40.284Z,96262.25
2022-09-05T05:53:42.777Z,96263.81
2022-09-05T05:56:49.052Z,96255.66
2022-09-05T05:59:38.205Z,96259.13
2022-09-05T06:02:31.667Z,96258.25
2022-09-05T06:05:25.962Z,96258.19
2022-09-05T06:10:17.708Z,96263.97
2022-09-05T06:15:06.399Z,96259.78
2022-09-05T06:15:10.144Z,96268.41
2022-09-05T06:18:28.477Z,96268.34
2022-09-05T06:22:08.366Z,96263.38
2022-09-05T06:25:17.604Z,96274.22
2022-09-05T06:28:18.428Z,96234.75
2022-09-05T06:31:02.124Z,96274.91
2022-09-05T06:33:58.551Z,96274.00
2022-09-05T06:36:49.161Z,96276.38
2022-09-05T06:39:30.696Z,96284.44
2022-09-05T06:42:43.014Z,96288.47
2022-09-05T06:45:32.552Z,96286.25
2022-09-05T06:48:13.630Z,96257.88
2022-09-05T06:51:16.093Z,96279.50
2022-09-05T06:54:09.174Z,96240.66
2022-09-05T06:57:04.741Z,96244.03
2022-09-05T07:00:17.632Z,96284.72
2022-09-05T07:03:13.512Z,96265.97
2022-09-05T07:05:50.463Z,96258.63
2022-09-05T07:08:36.497Z,96281.44
2022-09-05T07:11:17.177Z,96276.94
2022-09-05T07:13:58.192Z,96279.00
2022-09-05T07:16:39.210Z,96284.06
2022-09-05T07:19:27.275Z,96246.22
2022-09-05T07:22:47.860Z,96290.91
2022-09-05T07:25:20.012Z,96263.41
2022-09-05T07:28:28.235Z,96291.16
2022-09-05T07:30:50.349Z,96293.44
2022-09-05T07:33:21.656Z,96284.59
2022-09-05T07:35:53.157Z,96280.41
2022-09-05T07:38:38.073Z,96282.59
2022-09-05T07:41:23.787Z,96293.53
2022-09-05T07:43:57.093Z,96296.06
2022-09-05T07:46:29.957Z,96285.69
2022-09-05T07:49:02.946Z,96288.72
2022-09-05T07:55:49.315Z,96296.19
2022-09-05T07:56:51.466Z,96302.44
2022-09-05T07:57:30.658Z,96302.47
2022-09-05T08:00:07.872Z,96294.91
2022-09-05T08:02:54.960Z,96294.97
2022-09-05T08:05:34.574Z,96297.19
2022-09-05T08:08:10.143Z,96302.78
2022-09-05T08:11:24.317Z,96303.38
2022-09-05T08:13:51.748Z,96296.06
2022-09-05T08:16:23.976Z,96305.78
2022-09-05T08:18:58.118Z,96289.00
2022-09-05T08:21:39.861Z,96303.31
2022-09-05T08:24:14.459Z,96301.56
2022-09-05T08:26:47.830Z,96300.63
2022-09-05T08:29:31.103Z,96298.91
2022-09-05T08:32:08.692Z,96298.78
2022-09-05T08:34:44.763Z,96298.97
2022-09-05T08:37:21.659Z,96295.28
2022-09-05T08:40:07.227Z,96291.31
2022-09-05T08:43:29.498Z,96290.69
2022-09-05T08:46:40.019Z,96293.41
2022-09-05T08:48:49.570Z,96288.94
2022-09-05T08:51:34.375Z,96287.22
2022-09-05T08:54:17.933Z,96232.25
2022-09-05T08:56:56.186Z,96285.25
2022-09-05T08:59:36.957Z,96285.63
2022-09-05T09:03:04.317Z,96281.97
2022-09-05T09:06:12.871Z,96279.72
2022-09-05T09:08:56.665Z,96249.69
2022-09-05T09:11:36.765Z,96288.44
2022-09-05T09:14:48.072Z,96285.56
2022-09-05T09:17:33.584Z,96251.41
2022-09-05T09:20:16.540Z,96280.47
2022-09-05T09:22:55.804Z,96280.94
2022-09-05T09:25:30.730Z,96287.72
2022-09-05T09:28:45.287Z,96280.19
2022-09-05T09:31:15.631Z,96281.78
2022-09-05T09:33:51.352Z,96283.75
2022-09-05T09:36:39.348Z,96274.44
2022-09-05T09:39:38.648Z,96248.16
2022-09-05T09:42:33.554Z,96286.25
2022-09-05T09:45:39.075Z,96287.69
2022-09-05T09:48:37.932Z,96285.63
2022-09-05T09:51:26.974Z,96276.97
2022-09-05T09:54:35.373Z,96273.25
2022-09-05T09:57:36.241Z,96278.13
2022-09-05T10:00:12.716Z,96258.09
2022-09-05T10:06:54.140Z,96270.88
2022-09-05T10:10:53.339Z,96268.16
2022-09-05T10:11:08.804Z,96272.50
2022-09-05T10:13:16.868Z,96215.75
2022-09-05T10:16:17.194Z,96063.75
2022-09-05T10:19:02.136Z,96263.97
2022-09-05T10:25:18.575Z,96265.25
2022-09-05T10:28:02.420Z,96262.53
2022-09-05T10:31:39.878Z,96271.56
2022-09-05T10:35:13.152Z,96269.63
2022-09-05T10:36:32.450Z,96267.22
2022-09-05T10:39:21.225Z,96270.44
2022-09-05T10:41:57.217Z,96267.53
2022-09-05T10:44:40.808Z,96250.47
2022-09-05T10:47:20.509Z,96259.16
2022-09-05T10:49:51.808Z,96222.22
2022-09-05T10:52:31.707Z,96257.56
2022-09-05T10:55:15.633Z,96259.16
2022-09-05T10:58:02.113Z,96252.06
2022-09-05T11:02:22.427Z,96249.34
2022-09-05T11:03:50.432Z,96237.88
2022-09-05T11:06:25.141Z,96241.59
2022-09-05T11:09:06.287Z,96236.44
2022-09-05T11:11:46.288Z,96236.47
2022-09-05T11:14:36.690Z,96147.72
2022-09-05T11:17:14.269Z,96226.16
2022-09-05T11:19:45.869Z,96218.41
2022-09-05T11:22:23.589Z,96224.03
2022-09-05T11:24:56.968Z,96228.38
2022-09-05T11:27:35.352Z,96217.25
2022-09-05T11:30:07.787Z,96209.00
2022-09-05T11:39:45.855Z,96206.81
2022-09-05T11:40:02.466Z,96206.09
2022-09-05T11:40:07.230Z,96208.34
2022-09-05T11:42:24.119Z,96206.44
2022-09-05T11:45:14.168Z,96209.44
2022-09-05T11:48:21.176Z,96211.31
2022-09-05T11:51:28.254Z,96211.59
2022-09-05T11:54:41.169Z,96206.75
2022-09-05T11:57:35.323Z,96199.66
2022-09-05T12:00:31.318Z,96192.44
2022-09-05T12:04:00.109Z,96197.50
2022-09-05T12:06:55.024Z,96208.75
2022-09-05T12:09:36.679Z,96213.66
2022-09-05T12:12:39.130Z,96212.03
2022-09-05T12:15:27.024Z,96189.03
2022-09-05T12:18:24.400Z,96175.50
2022-09-05T12:21:03.042Z,96202.53
2022-09-05T12:25:15.168Z,96204.59
2022-09-05T12:27:44.450Z,96202.59
2022-09-05T12:29:48.989Z,96198.88
2022-09-05T12:33:40.074Z,96194.19
2022-09-05T12:36:05.996Z,96189.50
2022-09-05T12:41:36.421Z,96175.44
2022-09-05T12:41:44.159Z,96160.03
2022-09-05T12:44:44.847Z,96119.16
2022-09-05T12:47:20.076Z,96191.59
2022-09-05T12:50:15.215Z,96186.53
2022-09-05T12:52:46.926Z,96170.38
2022-09-05T12:55:27.055Z,96177.97
2022-09-05T13:02:55.277Z,96186.09
2022-09-05T13:03:06.201Z,96178.66
2022-09-05T13:04:15.713Z,96156.13
2022-09-05T13:06:42.871Z,96149.13
2022-09-05T13:09:21.800Z,96166.72
2022-09-05T13:14:49.703Z,96155.47
2022-09-05T13:15:12.502Z,96168.13
2022-09-05T13:17:51.627Z,96160.56
2022-09-05T13:20:33.443Z,96164.03
2022-09-05T13:23:15.327Z,96163.34
2022-09-05T13:25:50.779Z,96168.84
2022-09-05T13:28:23.891Z,96159.94
2022-09-05T13:37:56.483Z,96151.34
2022-09-05T13:38:07.411Z,96150.34
2022-09-05T13:38:27.536Z,96149.84
2022-09-05T13:39:47.644Z,96148.97
2022-09-05T13:42:20.088Z,96145.97
2022-09-05T13:44:52.756Z,96104.00
2022-09-05T13:47:53.921Z,96137.06
2022-09-05T13:50:27.238Z,96137.50
2022-09-05T13:53:01.240Z,96133.53
2022-09-05T13:55:46.011Z,96127.50
2022-09-05T13:58:22.269Z,96117.31
2022-09-05T14:01:17.735Z,96116.50
2022-09-05T14:07:51.887Z,96111.03
2022-09-05T14:10:46.007Z,96106.91
2022-09-05T14:13:24.529Z,96087.88
2022-09-05T14:15:59.612Z,96096.06
2022-09-05T14:18:33.950Z,96089.28
2022-09-05T14:21:19.441Z,96071.88
2022-09-05T14:23:54.088Z,96059.66
2022-09-05T14:26:31.840Z,96090.53
2022-09-05T14:29:07.901Z,96084.63
2022-09-05T14:37:35.182Z,96075.00
2022-09-05T14:37:52.613Z,96045.94
2022-09-05T14:38:09.336Z,96080.31
2022-09-05T14:41:17.089Z,96089.72
2022-09-05T14:44:15.645Z,96080.53
2022-09-05T14:47:35.326Z,96084.47
2022-09-05T14:50:39.717Z,96079.41
2022-09-05T14:57:23.167Z,96040.88
2022-09-05T15:02:48.794Z,96040.38
2022-09-05T15:03:00.104Z,96058.53
2022-09-05T15:05:19.140Z,96050.03
2022-09-05T15:07:49.968Z,96053.44
2022-09-05T15:12:16.832Z,96050.22
2022-09-05T15:13:25.613Z,96028.06
2022-09-05T15:16:02.968Z,96056.13
2022-09-05T15:18:34.899Z,96047.06
2022-09-05T15:21:33.824Z,96051.88
2022-09-05T15:24:14.979Z,96053.81
2022-09-05T15:26:55.244Z,96055.69
2022-09-05T15:29:26.020Z,96053.06
2022-09-05T15:32:14.753Z,96053.25
2022-09-05T15:34:43.228Z,96057.75
2022-09-05T15:37:30.867Z,96035.63
2022-09-05T15:40:22.482Z,96049.63
2022-09-05T15:42:57.148Z,96026.03
2022-09-05T15:45:28.572Z,96044.56
2022-09-05T15:48:08.799Z,96034.75
2022-09-05T15:50:43.682Z,96036.56
2022-09-05T15:53:22.089Z,96034.50
2022-09-05T15:56:00.291Z,96045.03
2022-09-05T15:58:52.280Z,96004.00
2022-09-05T16:01:46.468Z,96030.59
2022-09-05T16:09:01.731Z,96035.16
2022-09-05T16:10:40.809Z,96028.72
2022-09-05T16:10:40.812Z,96042.00
2022-09-05T16:12:54.072Z,96006.34
2022-09-05T16:16:50.122Z,96016.09
2022-09-05T16:23:19.307Z,95975.75
2022-09-05T16:23:26.565Z,96042.47
2022-09-05T16:24:06.202Z,96033.66
2022-09-05T16:26:41.337Z,96037.53
2022-09-05T16:29:25.303Z,96033.97
2022-09-05T16:32:10.572Z,96034.19
2022-09-05T16:34:45.566Z,96039.56
2022-09-05T16:37:15.727Z,95999.56
2022-09-05T16:39:50.331Z,96032.81
2022-09-05T16:42:45.860Z,96036.25
2022-09-05T16:45:34.015Z,96037.59
2022-09-05T16:48:26.760Z,96038.28
2022-09-05T16:51:15.263Z,95993.06
2022-09-05T16:53:58.503Z,96017.81
2022-09-05T16:56:30.829Z,96030.16
2022-09-05T16:59:02.666Z,96029.47
2022-09-05T17:01:48.025Z,96024.78
2022-09-05T17:04:28.967Z,95998.06
2022-09-05T17:07:00.795Z,96006.75
2022-09-05T17:09:38.837Z,96018.91
2022-09-05T17:12:12.299Z,96008.59
2022-09-05T17:14:43.642Z,96013.44
2022-09-05T17:18:04.798Z,95977.34
2022-09-05T17:20:14.976Z,96010.38
2022-09-05T17:25:04.083Z,96022.03
2022-09-05T17:29:33.767Z,96016.25
2022-09-05T17:29:48.872Z,96020.03
2022-09-05T17:31:53.597Z,96016.53
2022-09-05T17:34:47.684Z,96004.66
2022-09-05T17:37:47.728Z,96007.22
2022-09-05T17:40:48.399Z,96012.13
2022-09-05T17:43:28.807Z,96014.22
2022-09-05T17:46:14.334Z,96007.81
2022-09-05T17:49:18.698Z,96003.66
2022-09-05T17:52:18.406Z,96008.41
2022-09-05T17:54:52.493Z,96009.72
2022-09-05T17:57:42.470Z,96015.41
2022-09-05T18:00:49.731Z,96015.13
2022-09-05T18:04:18.489Z,96022.25
2022-09-05T18:06:59.342Z,96019.03
2022-09-05T18:10:14.699Z,95944.69
2022-09-05T18:13:32.012Z,96016.34
2022-09-05T18:16:12.010Z,96018.63
2022-09-05T18:19:28.193Z,96024.59
2022-09-05T18:24:42.009Z,96015.84
2022-09-05T18:28:03.139Z,96014.22
2022-09-05T18:30:29.419Z,96030.81
2022-09-05T18:33:55.702Z,96035.31
2022-09-05T18:36:34.161Z,96038.88
2022-09-05T18:39:39.863Z,96040.19
2022-09-05T18:42:26.032Z,96034.09
2022-09-05T18:45:14.777Z,96046.47
2022-09-05T18:47:52.745Z,96042.00
2022-09-05T18:50:32.491Z,96044.22
2022-09-05T18:53:10.520Z,96039.72
2022-09-05T18:56:12.955Z,96043.09
2022-09-05T18:58:52.045Z,96049.88
2022-09-05T19:01:36.594Z,96054.88
2022-09-05T19:04:10.172Z,96059.84
2022-09-05T19:07:07.903Z,96030.09
2022-09-05T19:09:38.373Z,96049.72
2022-09-05T19:12:33.949Z,96062.91
2022-09-05T19:15:06.989Z,96052.94
2022-09-05T19:17:47.147Z,96051.66
2022-09-05T19:20:33.135Z,96058.88
2022-09-05T19:23:11.739Z,96032.50
2022-09-05T19:25:44.228Z,96039.06
2022-09-05T19:35:55.787Z,96053.09
2022-09-05T19:37:08.026Z,96065.78
2022-09-05T19:37:22.778Z,96028.13
2022-09-05T19:43:24.158Z,96059.69
2022-09-05T19:47:42.046Z,96056.13
2022-09-05T19:47:46.418Z,96055.00
2022-09-05T19:48:26.115Z,96039.34
2022-09-05T19:50:57.825Z,96057.88
2022-09-05T19:53:26.731Z,96010.88
2022-09-05T19:55:55.505Z,96051.91
2022-09-05T19:58:25.101Z,96055.28
2022-09-05T20:01:03.787Z,96055.91
2022-09-05T20:03:38.168Z,96054.31
2022-09-05T20:06:24.760Z,96015.06
2022-09-05T20:09:10.434Z,96024.72
2022-09-05T20:11:46.429Z,96008.63
2022-09-05T20:14:24.604Z,96035.97
2022-09-05T20:16:57.563Z,96039.84
2022-09-05T20:19:29.962Z,96040.94
2022-09-05T20:22:48.012Z,96033.56
2022-09-05T20:24:56.544Z,96001.84
2022-09-05T20:27:28.138Z,96020.06
2022-09-05T20:29:59.434Z,96012.50
2022-09-05T20:32:39.260Z,96038.03
2022-09-05T20:37:18.465Z,95942.94
2022-09-05T20:43:16.109Z,96008.94
2022-09-05T20:43:27.222Z,95972.81
2022-09-05T20:43:58.226Z,96018.88
2022-09-05T20:52:31.553Z,96030.47
2022-09-05T20:54:08.934Z,96021.78
2022-09-05T20:54:20.953Z,96018.06
2022-09-05T20:55:38.601Z,96012.78
2022-09-05T20:58:11.078Z,96002.75
2022-09-05T21:01:02.435Z,96018.19
2022-09-05T21:03:37.145Z,96022.38
2022-09-05T21:06:14.461Z,96021.75
2022-09-05T21:08:43.437Z,96012.28
2022-09-05T21:11:13.737Z,96030.56
2022-09-05T21:13:52.434Z,96019.16
2022-09-05T21:16:29.204Z,96008.84
2022-09-05T21:18:58.001Z,96009.53
2022-09-05T21:21:30.177Z,96009.34
2022-09-05T21:24:16.502Z,96016.25
2022-09-05T21:26:49.887Z,96005.41
2022-09-05T21:29:27.484Z,96003.31
2022-09-05T21:32:09.762Z,95980.91
2022-09-05T21:34:45.398Z,96002.00
2022-09-05T21:37:16.275Z,96007.25
2022-09-05T21:39:58.429Z,96004.88
2022-09-05T21:47:35.463Z,95952.00
2022-09-05T21:47:42.353Z,96024.72
2022-09-05T21:48:12.009Z,95960.78
2022-09-05T21:50:43.047Z,96029.19
2022-09-05T21:55:13.431Z,96029.81
2022-09-05T21:59:19.473Z,96033.16
2022-09-05T21:59:29.832Z,96040.38
2022-09-05T22:01:54.973Z,96033.94
2022-09-05T22:04:23.810Z,96032.94
2022-09-05T22:06:54.323Z,96026.50
2022-09-05T22:09:23.970Z,95940.28
2022-09-05T22:11:52.832Z,95955.56
2022-09-05T22:14:24.655Z,96040.16
2022-09-05T22:16:56.515Z,95981.66
2022-09-05T22:19:35.255Z,96035.00
2022-09-05T22:22:16.613Z,96025.53
2022-09-05T22:24:52.128Z,95985.47
2022-09-05T22:27:26.478Z,95998.34
2022-09-05T22:29:57.526Z,96032.03
2022-09-05T22:32:35.229Z,95970.78
2022-09-05T22:35:27.895Z,95961.25
2022-09-05T22:38:01.236Z,96018.72
2022-09-05T22:40:32.250Z,95981.34
2022-09-05T22:43:02.720Z,96054.22
2022-09-05T22:45:34.789Z,96012.72
2022-09-05T22:48:09.303Z,96013.16
2022-09-05T22:50:38.428Z,96017.94
2022-09-05T22:53:08.748Z,96005.19
2022-09-05T22:55:37.920Z,96012.91
2022-09-05T22:58:07.207Z,96011.91
2022-09-05T23:00:37.938Z,96015.06
2022-09-05T23:03:08.286Z,96009.22
2022-09-05T23:05:37.193Z,96005.00
2022-09-05T23:08:07.377Z,96005.00
2022-09-05T23:10:37.243Z,96011.06
2022-09-05T23:13:07.150Z,96008.47
2022-09-05T23:15:37.677Z,95866.78
2022-09-05T23:18:06.672Z,96003.63
2022-09-05T23:20:36.479Z,96016.13
2022-09-05T23:23:07.311Z,95998.19
2022-09-05T23:25:36.893Z,95992.25
2022-09-05T23:28:09.494Z,95987.69
2022-09-05T23:30:41.209Z,95838.28
2022-09-05T23:33:11.040Z,95937.94
2022-09-05T23:35:40.099Z,95719.31
2022-09-05T23:38:11.679Z,95963.94
2022-09-05T23:40:40.588Z,95975.03
2022-09-05T23:43:09.309Z,95968.25
2022-09-05T23:45:39.197Z,95976.25
2022-09-05T23:48:07.642Z,95965.16
2022-09-05T23:50:36.476Z,95980.69
2022-09-05T23:53:06.200Z,95975.84
2022-09-05T23:55:34.812Z,95963.16
2022-09-05T23:58:03.543Z,95933.38
